Historique des mesures à Cassis (13260), France
Quotidien Résumé Mars 7, 2017 Unités:  Métrique    US   Métrique/US
« Précédent (Jour)
Suivant (Jour) »
Quotidien Hebdomadaire Mensuel Annuel Période au choix
  Maximum: Minimum: Moyenne:
Température: TemperatureC °C 8.4 °C 10.2 °C
Point de rosée: DewpointC °C -0.5 °C 1 °C
Humidité: Humidity % 40 % 50 %
Vitesse du vent: 0 km/h 7.6 km/h 23.8 km/h
Rafales: 0 km/h - -
Vent:- - West
Pression: PressurehPa hPa 1011.7 hPa -
Précipitations: 0.0 mm    
Historical Graphs
 
 
Mesures pour : Mars 7, 2017
Heure Temperature Point de rosée Pression Vent Vitesse du vent Rafales Humidité Pluie (par heure) Conditions
TemperatureC °C DewpointC °C PressurehPa hPa Calm     Humidity % HourlyPrecipMM mm SoftwareType W/m2
00:11 10.7 °C 2.0 °C 1011.7 hPa NW 8 km/h 76.4 km/h 55 % 0.0 mm open2300-1.11 W/m2
01:10 9.9 °C 1.5 °C 1012.8 hPa NNW 33.6 km/h 33.6 km/h 56 % 0.0 mm open2300-1.11 W/m2
02:11 9.8 °C 1.7 °C 1012.4 hPa NW 27.2 km/h 29 km/h 57 % 0.0 mm open2300-1.11 W/m2
03:10 9.4 °C 1.8 °C 1012.4 hPa NW 8 km/h 40.7 km/h 59 % 0.0 mm open2300-1.11 W/m2
04:11 9.2 °C 1.9 °C 1012.4 hPa WNW 27.2 km/h 29 km/h 60 % 0.0 mm open2300-1.11 W/m2
05:10 8.9 °C 2.2 °C 1013.1 hPa NW 17.4 km/h 43.5 km/h 63 % 0.0 mm open2300-1.11 W/m2
06:11 8.4 °C 1.9 °C 1013.4 hPa NNW 8 km/h 18.7 km/h 64 % 0.0 mm open2300-1.11 W/m2
07:10 8.4 °C 1.6 °C 1013.4 hPa North 20.3 km/h 20.3 km/h 62 % 0.0 mm open2300-1.11 W/m2
08:11 8.9 °C 2.0 °C 1014.1 hPa NNW 8 km/h 27.7 km/h 62 % 0.0 mm open2300-1.11 W/m2
09:10 9.5 °C 2.6 °C 1014.1 hPa NNW 12.2 km/h 16.3 km/h 62 % 0.0 mm open2300-1.11 W/m2
10:11 9.9 °C 2.5 °C 1014.4 hPa WNW 30.1 km/h 40.7 km/h 60 % 0.0 mm open2300-1.11 W/m2
11:10 11.1 °C 1.8 °C 1014.1 hPa WNW 37.5 km/h 37.5 km/h 53 % 0.0 mm open2300-1.11 W/m2
12:11 12.1 °C 1.4 °C 1013.8 hPa NNW 15 km/h 62 km/h 48 % 0.0 mm open2300-1.11 W/m2
13:10 12.4 °C 0.7 °C 1013.8 hPa WNW 47.3 km/h 47.3 km/h 45 % 0.0 mm open2300-1.11 W/m2
14:11 12.9 °C -0.4 °C 1013.4 hPa North 46.3 km/h 46.3 km/h 40 % 0.0 mm open2300-1.11 W/m2
15:10 12.4 °C 0.1 °C 1013.4 hPa WNW 51.5 km/h 54.4 km/h 43 % 0.0 mm open2300-1.11 W/m2
16:11 12.9 °C 0.2 °C 1013.1 hPa NNW 28.5 km/h 47.3 km/h 42 % 0.0 mm open2300-1.11 W/m2
17:10 12.6 °C -0.1 °C 1013.4 hPa North 19.2 km/h 54.9 km/h 42 % 0.0 mm open2300-1.11 W/m2
18:11 11.9 °C -0.3 °C 1013.8 hPa West 16.9 km/h 29.5 km/h 43 % 0.0 mm open2300-1.11 W/m2
19:10 11.4 °C -0.2 °C 1013.8 hPa NNW 49.2 km/h 51 km/h 45 % 0.0 mm open2300-1.11 W/m2
20:11 11.1 °C -0.4 °C 1013.8 hPa NNW 26.2 km/h 46.8 km/h 45 % 0.0 mm open2300-1.11 W/m2
21:10 10.7 °C -0.5 °C 1014.1 hPa NNW 11.6 km/h 44.6 km/h 46 % 0.0 mm open2300-1.11 W/m2
22:11 10.2 °C -0.3 °C 1014.8 hPa North 7.6 km/h 20.9 km/h 48 % 0.0 mm open2300-1.11 W/m2
23:10 9.7 °C 0.1 °C 1014.4 hPa WNW 36.5 km/h 36.5 km/h 51 % 0.0 mm open2300-1.11 W/m2
Observations météo à CASSIS
WU-History script by Weather Underground - 1 mb